createdAt,value
2023-01-31T00:00:27.187Z,1017.13
2023-01-31T00:00:57.872Z,1017.03
2023-01-31T00:01:30.967Z,1017.03
2023-01-31T00:02:01.925Z,1017.13
2023-01-31T00:02:35.121Z,1017.24
2023-01-31T00:03:05.989Z,1017.24
2023-01-31T00:03:34.288Z,1017.13
2023-01-31T00:03:54.039Z,1017.13
2023-01-31T00:04:25.999Z,1017.13
2023-01-31T00:04:57.925Z,1017.24
2023-01-31T00:05:30.088Z,1017.24
2023-01-31T00:06:02.890Z,1016.83
2023-01-31T00:06:33.847Z,1016.93
2023-01-31T00:07:06.815Z,1016.93
2023-01-31T00:07:34.926Z,1016.73
2023-01-31T00:07:53.991Z,1016.73
2023-01-31T00:08:25.838Z,1016.73
2023-01-31T00:08:43.018Z,1017.03
2023-01-31T00:09:14.577Z,1017.03
2023-01-31T00:09:35.242Z,1017.03
2023-01-31T00:10:02.139Z,1017.03
2023-01-31T00:10:34.160Z,1017.03
2023-01-31T00:11:05.973Z,1016.73
2023-01-31T00:11:35.192Z,1017.03
2023-01-31T00:11:53.916Z,1017.03
2023-01-31T00:12:26.665Z,1017.03
2023-01-31T00:12:43.160Z,1017.03
2023-01-31T00:13:14.073Z,1017.03
2023-01-31T00:13:35.296Z,1017.03
2023-01-31T00:14:01.851Z,1017.03
2023-01-31T00:14:34.969Z,1017.03
2023-01-31T00:15:06.031Z,1017.03
2023-01-31T00:15:36.302Z,1016.93
2023-01-31T00:15:54.200Z,1016.93
2023-01-31T00:16:25.979Z,1016.93
2023-01-31T00:16:43.919Z,1017.03
2023-01-31T00:17:13.885Z,1017.03
2023-01-31T00:17:35.166Z,1017.13
2023-01-31T00:18:01.947Z,1017.13
2023-01-31T00:18:33.903Z,1017.13
2023-01-31T00:19:07.049Z,1017.03
2023-01-31T00:19:35.201Z,1017.13
2023-01-31T00:19:53.946Z,1017.13
2023-01-31T00:20:26.068Z,1017.13
2023-01-31T00:20:43.016Z,1017.44
2023-01-31T00:21:14.683Z,1017.44
2023-01-31T00:21:35.194Z,1017.03
2023-01-31T00:22:02.172Z,1017.03
2023-01-31T00:22:33.933Z,1017.03
2023-01-31T00:23:05.993Z,1017.13
2023-01-31T00:23:35.280Z,1017.13
2023-01-31T00:23:53.918Z,1017.13
2023-01-31T00:24:26.689Z,1017.13
2023-01-31T00:24:43.560Z,1016.93
2023-01-31T00:25:14.105Z,1016.93
2023-01-31T00:25:35.208Z,1017.13
2023-01-31T00:26:01.957Z,1017.13
2023-01-31T00:26:35.018Z,1017.13
2023-01-31T00:27:05.906Z,1017.13
2023-01-31T00:27:36.078Z,1017.03
2023-01-31T00:27:53.889Z,1017.03
2023-01-31T00:28:25.881Z,1017.03
2023-01-31T00:28:43.900Z,1016.93
2023-01-31T00:29:13.938Z,1016.93
2023-01-31T00:29:35.196Z,1017.03
2023-01-31T00:30:02.141Z,1017.03
2023-01-31T00:30:33.898Z,1017.03
2023-01-31T00:31:07.028Z,1017.03
2023-01-31T00:31:35.384Z,1016.93
2023-01-31T00:31:54.254Z,1016.93
2023-01-31T00:32:25.929Z,1016.93
2023-01-31T00:32:58.000Z,1017.03
2023-01-31T00:33:29.917Z,1017.03
2023-01-31T00:34:02.347Z,1016.83
2023-01-31T00:34:34.254Z,1016.83
2023-01-31T00:35:06.048Z,1016.83
2023-01-31T00:35:35.209Z,1017.13
2023-01-31T00:35:54.083Z,1017.13
2023-01-31T00:36:26.714Z,1017.13
2023-01-31T00:36:43.223Z,1017.13
2023-01-31T00:37:13.986Z,1017.13
2023-01-31T00:37:35.759Z,1016.93
2023-01-31T00:38:01.913Z,1016.93
2023-01-31T00:38:34.959Z,1016.93
2023-01-31T00:39:05.948Z,1017.03
2023-01-31T00:39:37.027Z,1016.93
2023-01-31T00:40:10.128Z,1016.93
2023-01-31T00:40:35.864Z,1017.03
2023-01-31T00:40:58.261Z,1017.03
2023-01-31T00:41:29.884Z,1017.03
2023-01-31T00:42:02.769Z,1016.93
2023-01-31T00:42:34.697Z,1016.93
2023-01-31T00:43:06.709Z,1016.83
2023-01-31T00:43:35.476Z,1016.83
2023-01-31T00:43:53.959Z,1016.83
2023-01-31T00:44:26.333Z,1016.83
2023-01-31T00:44:43.440Z,1017.03
2023-01-31T00:45:15.296Z,1017.03
2023-01-31T00:45:35.811Z,1017.03
2023-01-31T00:46:01.874Z,1017.03
2023-01-31T00:46:33.894Z,1017.03
2023-01-31T00:47:05.948Z,1017.03
2023-01-31T00:47:35.272Z,1016.93
2023-01-31T00:47:53.947Z,1016.93
2023-01-31T00:48:26.754Z,1016.93
2023-01-31T00:48:43.240Z,1017.13
2023-01-31T00:49:13.982Z,1017.13
2023-01-31T00:49:35.692Z,1017.13
2023-01-31T00:50:02.166Z,1017.13
2023-01-31T00:50:35.418Z,1017.13
2023-01-31T00:51:05.897Z,1017.03
2023-01-31T00:51:36.549Z,1017.03
2023-01-31T00:51:53.946Z,1017.03
2023-01-31T00:52:25.978Z,1017.03
2023-01-31T00:52:43.934Z,1017.24
2023-01-31T00:53:13.888Z,1017.24
2023-01-31T00:53:35.953Z,1017.13
2023-01-31T00:54:02.013Z,1017.13
2023-01-31T00:54:34.235Z,1017.13
2023-01-31T00:55:06.854Z,1016.93
2023-01-31T00:55:35.624Z,1017.03
2023-01-31T00:55:54.151Z,1017.03
2023-01-31T00:56:26.100Z,1017.03
2023-01-31T00:56:43.008Z,1017.13
2023-01-31T00:57:14.755Z,1017.13
2023-01-31T00:57:35.449Z,1016.93
2023-01-31T00:58:02.025Z,1016.93
2023-01-31T00:58:34.358Z,1016.93
2023-01-31T00:59:06.049Z,1017.13
2023-01-31T00:59:35.619Z,1017.03
2023-01-31T00:59:53.957Z,1017.03
2023-01-31T01:00:27.119Z,1017.03
2023-01-31T01:00:43.266Z,1017.13
2023-01-31T01:01:14.060Z,1017.13
2023-01-31T01:01:35.851Z,1016.93
2023-01-31T01:02:01.994Z,1016.93
2023-01-31T01:02:34.942Z,1016.93
2023-01-31T01:03:05.893Z,1017.03
2023-01-31T01:03:36.838Z,1016.83
2023-01-31T01:03:53.893Z,1016.83
2023-01-31T01:04:26.301Z,1016.83
2023-01-31T01:04:43.768Z,1017.03
2023-01-31T01:05:14.057Z,1017.03
2023-01-31T01:05:35.916Z,1016.93
2023-01-31T01:06:02.805Z,1016.93
2023-01-31T01:06:34.581Z,1016.93
2023-01-31T01:07:06.666Z,1017.03
2023-01-31T01:07:35.359Z,1016.93
2023-01-31T01:07:53.936Z,1016.93
2023-01-31T01:08:26.161Z,1016.93
2023-01-31T01:08:43.120Z,1016.83
2023-01-31T01:09:14.690Z,1016.83
2023-01-31T01:09:35.634Z,1016.83
2023-01-31T01:10:02.120Z,1016.83
2023-01-31T01:10:34.364Z,1016.83
2023-01-31T01:11:05.912Z,1017.03
2023-01-31T01:11:36.017Z,1016.93
2023-01-31T01:11:53.943Z,1016.93
2023-01-31T01:12:27.084Z,1016.93
2023-01-31T01:12:43.246Z,1017.03
2023-01-31T01:13:13.880Z,1017.03
2023-01-31T01:13:35.419Z,1016.83
2023-01-31T01:14:01.929Z,1016.83
2023-01-31T01:14:35.527Z,1016.83
2023-01-31T01:15:06.248Z,1016.63
2023-01-31T01:15:36.347Z,1017.03
2023-01-31T01:16:01.234Z,1017.03
2023-01-31T01:16:25.898Z,1017.03
2023-01-31T01:16:43.866Z,1017.03
2023-01-31T01:17:13.960Z,1017.03
2023-01-31T01:17:35.266Z,1017.03
2023-01-31T01:18:01.901Z,1017.03
2023-01-31T01:18:34.255Z,1017.03
2023-01-31T01:19:06.718Z,1016.93
2023-01-31T01:19:35.171Z,1016.93
2023-01-31T01:19:53.992Z,1016.93
2023-01-31T01:20:26.148Z,1016.93
2023-01-31T01:20:43.392Z,1016.83
2023-01-31T01:21:14.762Z,1016.83
2023-01-31T01:21:35.124Z,1016.83
2023-01-31T01:22:02.103Z,1016.83
2023-01-31T01:22:34.315Z,1016.83
2023-01-31T01:23:05.921Z,1016.93
2023-01-31T01:23:35.212Z,1016.83
2023-01-31T01:23:53.917Z,1016.83
2023-01-31T01:24:26.816Z,1016.83
2023-01-31T01:24:43.195Z,1016.83
2023-01-31T01:25:14.504Z,1016.83
2023-01-31T01:25:35.491Z,1016.73
2023-01-31T01:26:01.975Z,1016.73
2023-01-31T01:26:36.659Z,1016.73
2023-01-31T01:27:05.960Z,1017.03
2023-01-31T01:27:35.234Z,1017.03
2023-01-31T01:27:54.007Z,1017.03
2023-01-31T01:28:27.951Z,1017.03
2023-01-31T01:28:43.090Z,1016.83
2023-01-31T01:29:13.953Z,1016.83
2023-01-31T01:29:35.205Z,1016.83
2023-01-31T01:30:03.059Z,1016.83
2023-01-31T01:30:34.296Z,1016.83
2023-01-31T01:31:07.081Z,1016.73
2023-01-31T01:31:35.876Z,1016.83
2023-01-31T01:31:54.047Z,1016.83
2023-01-31T01:32:26.018Z,1016.83
2023-01-31T01:32:43.099Z,1016.83
2023-01-31T01:33:14.844Z,1016.83
2023-01-31T01:33:35.216Z,1016.83
2023-01-31T01:34:02.315Z,1016.83
2023-01-31T01:34:34.704Z,1016.83
2023-01-31T01:35:06.104Z,1016.93
2023-01-31T01:35:35.269Z,1016.93
2023-01-31T01:35:54.204Z,1016.93
2023-01-31T01:36:26.735Z,1016.93
2023-01-31T01:36:44.233Z,1016.93
2023-01-31T01:37:13.964Z,1016.93
2023-01-31T01:37:35.446Z,1016.93
2023-01-31T01:38:01.945Z,1016.93
2023-01-31T01:38:34.753Z,1016.93
2023-01-31T01:39:05.860Z,1016.93
2023-01-31T01:39:36.212Z,1017.03
2023-01-31T01:39:53.971Z,1017.03
2023-01-31T01:40:25.991Z,1017.03
2023-01-31T01:40:43.886Z,1016.83
2023-01-31T01:41:29.879Z,1016.83
2023-01-31T01:42:01.957Z,1017.03
2023-01-31T01:42:33.894Z,1017.03
2023-01-31T01:43:05.932Z,1017.03
2023-01-31T01:43:35.252Z,1016.93
2023-01-31T01:43:54.797Z,1016.93
2023-01-31T01:44:25.894Z,1016.93
2023-01-31T01:45:02.029Z,1017.03
2023-01-31T01:45:30.695Z,1017.03
2023-01-31T01:46:02.934Z,1016.83
2023-01-31T01:46:33.902Z,1016.83
2023-01-31T01:47:06.776Z,1017.24
2023-01-31T01:47:35.217Z,1016.93
2023-01-31T01:47:53.951Z,1016.93
2023-01-31T01:48:25.942Z,1016.93
2023-01-31T01:48:43.070Z,1017.13
2023-01-31T01:49:14.735Z,1017.13
2023-01-31T01:49:35.217Z,1016.83
2023-01-31T01:50:02.040Z,1016.83
2023-01-31T01:50:33.911Z,1016.83
2023-01-31T01:51:05.937Z,1016.83
2023-01-31T01:51:35.251Z,1017.03
2023-01-31T01:51:53.970Z,1017.03
2023-01-31T01:52:27.347Z,1017.03
2023-01-31T01:52:58.185Z,1016.73
2023-01-31T01:53:30.820Z,1016.73
2023-01-31T01:54:01.916Z,1016.63
2023-01-31T01:54:34.725Z,1016.63
2023-01-31T01:55:06.116Z,1017.03
2023-01-31T01:55:36.259Z,1017.03
2023-01-31T01:55:54.147Z,1017.03
2023-01-31T01:56:25.973Z,1017.03
2023-01-31T01:56:43.977Z,1016.93
2023-01-31T01:57:13.944Z,1016.93
2023-01-31T01:57:35.217Z,1016.83
2023-01-31T01:58:01.901Z,1016.83
2023-01-31T01:58:33.981Z,1016.83
2023-01-31T01:59:06.712Z,1016.83
2023-01-31T01:59:35.958Z,1016.93
2023-01-31T01:59:53.995Z,1016.93
2023-01-31T02:00:26.507Z,1016.93
2023-01-31T02:00:58.048Z,1016.63
2023-01-31T02:01:30.042Z,1016.63
2023-01-31T02:02:02.093Z,1016.83
2023-01-31T02:02:33.933Z,1016.83
2023-01-31T02:03:05.959Z,1016.83
2023-01-31T02:03:35.188Z,1016.83
2023-01-31T02:03:53.916Z,1016.83
2023-01-31T02:04:26.994Z,1016.83
2023-01-31T02:04:43.167Z,1016.73
2023-01-31T02:05:14.082Z,1016.73
2023-01-31T02:05:35.193Z,1016.83
2023-01-31T02:06:01.980Z,1016.83
2023-01-31T02:06:34.917Z,1016.83
2023-01-31T02:07:06.348Z,1016.73
2023-01-31T02:07:36.420Z,1016.52
2023-01-31T02:07:53.910Z,1016.52
2023-01-31T02:08:25.934Z,1016.52
2023-01-31T02:08:43.914Z,1016.83
2023-01-31T02:09:13.941Z,1016.83
2023-01-31T02:09:35.809Z,1016.73
2023-01-31T02:10:02.147Z,1016.73
2023-01-31T02:10:33.914Z,1016.73
2023-01-31T02:11:06.879Z,1016.73
2023-01-31T02:11:35.931Z,1016.83
2023-01-31T02:11:53.924Z,1016.83
2023-01-31T02:12:26.261Z,1016.83
2023-01-31T02:12:43.201Z,1016.73
2023-01-31T02:13:14.853Z,1016.73
2023-01-31T02:13:35.216Z,1016.83
2023-01-31T02:14:02.003Z,1016.83
2023-01-31T02:14:34.188Z,1016.83
2023-01-31T02:15:06.246Z,1016.93
2023-01-31T02:15:35.172Z,1016.52
2023-01-31T02:15:54.155Z,1016.52
2023-01-31T02:16:26.941Z,1016.52
2023-01-31T02:16:43.273Z,1016.73
2023-01-31T02:17:13.940Z,1016.73
2023-01-31T02:17:35.154Z,1016.83
2023-01-31T02:18:01.932Z,1016.83
2023-01-31T02:18:35.865Z,1016.83
2023-01-31T02:19:05.981Z,1016.73
2023-01-31T02:19:35.141Z,1016.83
2023-01-31T02:19:53.985Z,1016.83
2023-01-31T02:20:26.447Z,1016.83
2023-01-31T02:20:58.740Z,1016.63
2023-01-31T02:21:29.964Z,1016.63
2023-01-31T02:22:02.817Z,1016.73
2023-01-31T02:22:34.052Z,1016.73
2023-01-31T02:23:06.751Z,1016.73
2023-01-31T02:23:35.192Z,1016.52
2023-01-31T02:23:53.935Z,1016.52
2023-01-31T02:24:25.966Z,1016.52
2023-01-31T02:24:43.150Z,1016.63
2023-01-31T02:25:15.067Z,1016.63
2023-01-31T02:25:35.688Z,1016.63
2023-01-31T02:26:02.268Z,1016.63
2023-01-31T02:26:34.186Z,1016.63
2023-01-31T02:27:06.211Z,1016.42
2023-01-31T02:27:35.209Z,1016.73
2023-01-31T02:27:54.081Z,1016.73
2023-01-31T02:28:26.718Z,1016.73
2023-01-31T02:28:43.337Z,1016.52
2023-01-31T02:29:13.922Z,1016.52
2023-01-31T02:29:35.254Z,1016.73
2023-01-31T02:30:02.118Z,1016.73
2023-01-31T02:30:35.168Z,1016.73
2023-01-31T02:31:05.925Z,1016.63
2023-01-31T02:31:35.593Z,1016.52
2023-01-31T02:31:53.999Z,1016.52
2023-01-31T02:32:26.185Z,1016.52
2023-01-31T02:32:43.060Z,1016.63
2023-01-31T02:33:13.897Z,1016.63
2023-01-31T02:33:35.279Z,1016.63
2023-01-31T02:34:18.746Z,1016.63
2023-01-31T02:34:49.913Z,1016.83
2023-01-31T02:35:23.678Z,1016.83
2023-01-31T02:35:40.395Z,1016.73
2023-01-31T02:36:09.967Z,1016.73
2023-01-31T02:36:35.155Z,1016.73
2023-01-31T02:36:58.036Z,1016.73
2023-01-31T02:37:30.793Z,1016.73
2023-01-31T02:38:01.862Z,1016.52
2023-01-31T02:38:34.807Z,1016.52
2023-01-31T02:39:05.937Z,1016.73
2023-01-31T02:39:35.963Z,1016.73
2023-01-31T02:39:53.920Z,1016.73
2023-01-31T02:40:26.640Z,1016.73
2023-01-31T02:40:43.937Z,1016.63
2023-01-31T02:41:13.995Z,1016.63
2023-01-31T02:41:35.139Z,1017.03
2023-01-31T02:42:01.905Z,1017.03
2023-01-31T02:42:33.969Z,1017.03
2023-01-31T02:43:06.701Z,1016.73
2023-01-31T02:43:35.358Z,1016.73
2023-01-31T02:43:53.917Z,1016.73
2023-01-31T02:44:25.961Z,1016.73
2023-01-31T02:44:58.045Z,1016.63
2023-01-31T02:45:30.159Z,1016.63
2023-01-31T02:46:02.072Z,1016.73
2023-01-31T02:46:34.205Z,1016.73
2023-01-31T02:47:05.993Z,1016.63
2023-01-31T02:47:35.595Z,1016.63
2023-01-31T02:47:53.998Z,1016.63
2023-01-31T02:48:26.704Z,1016.63
2023-01-31T02:48:43.225Z,1016.73
2023-01-31T02:49:14.043Z,1016.73
2023-01-31T02:49:35.166Z,1016.83
2023-01-31T02:50:02.059Z,1016.83
2023-01-31T02:50:35.298Z,1016.83
2023-01-31T02:51:05.974Z,1016.73
2023-01-31T02:51:35.261Z,1016.52
2023-01-31T02:52:09.923Z,1016.52
2023-01-31T02:52:35.470Z,1016.83
2023-01-31T02:52:58.695Z,1016.83
2023-01-31T02:53:30.110Z,1016.83
2023-01-31T02:54:03.033Z,1016.52
2023-01-31T02:54:33.916Z,1016.52
2023-01-31T02:55:06.803Z,1016.63
2023-01-31T02:55:35.171Z,1016.73
2023-01-31T02:55:54.059Z,1016.73
2023-01-31T02:56:25.978Z,1016.73
2023-01-31T02:56:43.088Z,1016.63
2023-01-31T02:57:14.731Z,1016.63
2023-01-31T02:57:35.160Z,1016.83
2023-01-31T02:58:01.904Z,1016.83
2023-01-31T02:58:33.955Z,1016.83
2023-01-31T02:59:05.971Z,1016.63
2023-01-31T02:59:35.466Z,1016.52
2023-01-31T03:00:10.357Z,1016.52
2023-01-31T03:00:35.174Z,1016.63
2023-01-31T03:00:58.232Z,1016.63
2023-01-31T03:01:31.608Z,1016.63
2023-01-31T03:02:01.927Z,1016.83
2023-01-31T03:02:34.952Z,1016.83
2023-01-31T03:03:05.954Z,1016.63
2023-01-31T03:03:36.777Z,1016.52
2023-01-31T03:04:09.919Z,1016.52
2023-01-31T03:04:35.183Z,1016.83
2023-01-31T03:04:58.046Z,1016.83
2023-01-31T03:05:30.096Z,1016.83
2023-01-31T03:06:01.983Z,1016.63
2023-01-31T03:06:33.930Z,1016.63
2023-01-31T03:07:22.847Z,1016.73
2023-01-31T03:07:39.941Z,1016.73
2023-01-31T03:08:10.017Z,1016.73
2023-01-31T03:08:35.169Z,1016.73
2023-01-31T03:08:58.066Z,1016.73
2023-01-31T03:09:30.617Z,1016.73
2023-01-31T03:10:02.059Z,1016.63
2023-01-31T03:10:34.947Z,1016.63
2023-01-31T03:11:05.949Z,1016.52
2023-01-31T03:11:36.355Z,1016.83
2023-01-31T03:11:54.007Z,1016.83
2023-01-31T03:12:25.932Z,1016.83
2023-01-31T03:12:43.864Z,1016.52
2023-01-31T03:13:13.919Z,1016.52
2023-01-31T03:13:35.149Z,1016.63
2023-01-31T03:14:01.895Z,1016.63
2023-01-31T03:14:33.927Z,1016.63
2023-01-31T03:15:07.061Z,1016.52
2023-01-31T03:15:35.167Z,1016.73
2023-01-31T03:16:10.705Z,1016.73
2023-01-31T03:16:35.327Z,1016.63
2023-01-31T03:16:57.995Z,1016.63
2023-01-31T03:17:29.935Z,1016.63
2023-01-31T03:18:01.910Z,1016.63
2023-01-31T03:18:33.901Z,1016.63
2023-01-31T03:19:05.873Z,1016.63
2023-01-31T03:19:35.261Z,1016.73
2023-01-31T03:19:53.960Z,1016.73
2023-01-31T03:20:26.816Z,1016.73
2023-01-31T03:20:43.232Z,1016.42
2023-01-31T03:21:14.192Z,1016.42
2023-01-31T03:21:35.548Z,1016.52
2023-01-31T03:22:02.172Z,1016.52
2023-01-31T03:22:35.014Z,1016.52
2023-01-31T03:23:05.954Z,1016.32
2023-01-31T03:23:36.310Z,1016.63
2023-01-31T03:23:53.964Z,1016.63
2023-01-31T03:24:25.940Z,1016.63
2023-01-31T03:24:43.842Z,1016.63
2023-01-31T03:25:14.271Z,1016.63
2023-01-31T03:25:35.362Z,1016.52
2023-01-31T03:26:01.988Z,1016.52
2023-01-31T03:26:33.999Z,1016.52
2023-01-31T03:27:06.665Z,1016.52
2023-01-31T03:27:35.274Z,1016.42
2023-01-31T03:27:53.924Z,1016.42
2023-01-31T03:28:25.978Z,1016.42
2023-01-31T03:28:43.118Z,1016.52
2023-01-31T03:29:14.743Z,1016.52
2023-01-31T03:29:35.194Z,1016.52
2023-01-31T03:30:02.141Z,1016.52
2023-01-31T03:30:34.173Z,1016.52
2023-01-31T03:31:06.054Z,1016.32
2023-01-31T03:31:35.583Z,1016.52
2023-01-31T03:31:54.127Z,1016.52
2023-01-31T03:32:26.725Z,1016.52
2023-01-31T03:32:43.265Z,1016.42
2023-01-31T03:33:15.873Z,1016.42
2023-01-31T03:33:35.158Z,1016.42
2023-01-31T03:34:02.157Z,1016.42
2023-01-31T03:34:36.183Z,1016.42
2023-01-31T03:35:06.110Z,1016.32
2023-01-31T03:35:35.221Z,1016.42
2023-01-31T03:36:09.936Z,1016.42
2023-01-31T03:36:36.070Z,1016.22
2023-01-31T03:36:58.685Z,1016.22
2023-01-31T03:37:30.234Z,1016.22
2023-01-31T03:38:02.780Z,1016.12
2023-01-31T03:38:33.955Z,1016.12
2023-01-31T03:39:06.761Z,1016.12
2023-01-31T03:39:35.173Z,1016.22
2023-01-31T03:39:53.955Z,1016.22
2023-01-31T03:40:26.106Z,1016.22
2023-01-31T03:40:43.092Z,1016.32
2023-01-31T03:41:15.073Z,1016.32
2023-01-31T03:41:35.221Z,1016.22
2023-01-31T03:42:01.929Z,1016.22
2023-01-31T03:42:33.919Z,1016.22
2023-01-31T03:43:05.929Z,1016.02
2023-01-31T03:43:35.396Z,1016.32
2023-01-31T03:43:53.966Z,1016.32
2023-01-31T03:44:26.772Z,1016.32
2023-01-31T03:44:57.997Z,1016.22
2023-01-31T03:45:30.993Z,1016.22
2023-01-31T03:46:02.006Z,1016.32
2023-01-31T03:46:34.909Z,1016.32
2023-01-31T03:47:05.966Z,1016.02
2023-01-31T03:47:36.350Z,1016.12
2023-01-31T03:47:54.006Z,1016.12
2023-01-31T03:48:25.950Z,1016.12
2023-01-31T03:48:44.792Z,1016.52
2023-01-31T03:49:14.090Z,1016.52
2023-01-31T03:49:35.936Z,1016.52
2023-01-31T03:50:02.019Z,1016.52
2023-01-31T03:50:34.242Z,1016.52
2023-01-31T03:51:06.847Z,1016.12
2023-01-31T03:51:35.197Z,1016.52
2023-01-31T03:51:53.952Z,1016.52
2023-01-31T03:52:25.985Z,1016.52
2023-01-31T03:52:43.115Z,1016.22
2023-01-31T03:53:15.029Z,1016.22
2023-01-31T03:53:35.186Z,1016.32
2023-01-31T03:54:01.983Z,1016.32
2023-01-31T03:54:33.939Z,1016.32
2023-01-31T03:55:06.064Z,1016.32
2023-01-31T03:55:35.132Z,1016.22
2023-01-31T03:55:54.027Z,1016.22
2023-01-31T03:56:26.720Z,1016.22
2023-01-31T03:56:43.248Z,1016.22
2023-01-31T03:57:14.336Z,1016.22
2023-01-31T03:57:35.217Z,1016.32
2023-01-31T03:58:01.936Z,1016.32
2023-01-31T03:58:35.933Z,1016.32
2023-01-31T03:59:05.907Z,1016.52
2023-01-31T03:59:35.256Z,1016.32
2023-01-31T03:59:53.934Z,1016.32
2023-01-31T04:00:26.200Z,1016.32
2023-01-31T04:00:43.132Z,1016.02
2023-01-31T04:01:14.299Z,1016.02
2023-01-31T04:01:35.313Z,1016.32
2023-01-31T04:02:02.768Z,1016.32
2023-01-31T04:02:34.325Z,1016.32
2023-01-31T04:03:06.781Z,1016.42
2023-01-31T04:03:35.265Z,1016.42
2023-01-31T04:03:53.924Z,1016.42
2023-01-31T04:04:26.163Z,1016.42
2023-01-31T04:04:43.192Z,1016.22
2023-01-31T04:05:14.884Z,1016.22
2023-01-31T04:05:35.411Z,1016.22
2023-01-31T04:06:01.930Z,1016.22
2023-01-31T04:06:34.700Z,1016.22
2023-01-31T04:07:05.962Z,1016.42
2023-01-31T04:07:35.977Z,1016.22
2023-01-31T04:07:53.928Z,1016.22
2023-01-31T04:08:25.960Z,1016.22
2023-01-31T04:08:44.012Z,1016.42
2023-01-31T04:09:14.103Z,1016.42
2023-01-31T04:09:35.154Z,1016.32
2023-01-31T04:10:02.228Z,1016.32
2023-01-31T04:10:34.323Z,1016.32
2023-01-31T04:11:06.826Z,1016.42
2023-01-31T04:11:35.242Z,1016.12
2023-01-31T04:11:53.953Z,1016.12
2023-01-31T04:12:25.948Z,1016.12
2023-01-31T04:12:43.141Z,1016.22
2023-01-31T04:13:14.790Z,1016.22
2023-01-31T04:13:35.356Z,1016.22
2023-01-31T04:14:01.970Z,1016.22
2023-01-31T04:14:33.937Z,1016.22
2023-01-31T04:15:06.188Z,1016.12
2023-01-31T04:15:35.158Z,1016.22
2023-01-31T04:15:54.131Z,1016.22
2023-01-31T04:16:27.155Z,1016.22
2023-01-31T04:16:58.193Z,1016.12
2023-01-31T04:17:31.431Z,1016.12
2023-01-31T04:18:01.949Z,1016.12
2023-01-31T04:18:37.430Z,1016.12
2023-01-31T04:19:05.933Z,1016.32
2023-01-31T04:19:36.783Z,1016.02
2023-01-31T04:19:53.962Z,1016.02
2023-01-31T04:20:26.062Z,1016.02
2023-01-31T04:20:43.979Z,1016.12
2023-01-31T04:21:13.944Z,1016.12
2023-01-31T04:21:35.194Z,1016.12
2023-01-31T04:22:02.134Z,1016.12
2023-01-31T04:22:33.935Z,1016.12
2023-01-31T04:23:06.775Z,1016.22
2023-01-31T04:23:35.209Z,1016.22
2023-01-31T04:23:53.983Z,1016.22
2023-01-31T04:24:25.957Z,1016.22
2023-01-31T04:24:58.569Z,1016.22
2023-01-31T04:25:32.697Z,1016.22
2023-01-31T04:26:02.041Z,1016.22
2023-01-31T04:26:33.919Z,1016.22
2023-01-31T04:27:05.987Z,1016.22
2023-01-31T04:27:35.235Z,1016.12
2023-01-31T04:27:53.940Z,1016.12
2023-01-31T04:28:26.764Z,1016.12
2023-01-31T04:28:57.964Z,1016.32
2023-01-31T04:29:30.658Z,1016.32
2023-01-31T04:30:02.237Z,1016.22
2023-01-31T04:30:34.888Z,1016.22
2023-01-31T04:31:06.087Z,1016.02
2023-01-31T04:31:36.777Z,1016.12
2023-01-31T04:31:54.057Z,1016.12
2023-01-31T04:32:25.992Z,1016.12
2023-01-31T04:32:43.899Z,1016.12
2023-01-31T04:33:13.922Z,1016.12
2023-01-31T04:33:35.192Z,1016.12
2023-01-31T04:34:02.004Z,1016.12
2023-01-31T04:34:34.174Z,1016.12
2023-01-31T04:35:07.589Z,1016.12
2023-01-31T04:35:35.182Z,1016.12
2023-01-31T04:35:54.080Z,1016.12
2023-01-31T04:36:25.938Z,1016.12
2023-01-31T04:36:43.212Z,1015.92
2023-01-31T04:37:14.745Z,1015.92
2023-01-31T04:37:35.191Z,1016.02
2023-01-31T04:38:01.992Z,1016.02
2023-01-31T04:38:33.992Z,1016.02
2023-01-31T04:39:05.964Z,1016.22
2023-01-31T04:39:35.224Z,1016.22
2023-01-31T04:39:54.059Z,1016.22
2023-01-31T04:40:26.895Z,1016.22
2023-01-31T04:40:58.017Z,1016.12
2023-01-31T04:41:32.009Z,1016.12
2023-01-31T04:42:02.178Z,1016.02
2023-01-31T04:42:34.762Z,1016.02
2023-01-31T04:43:06.014Z,1016.12
2023-01-31T04:43:36.393Z,1016.12
2023-01-31T04:43:53.939Z,1016.12
2023-01-31T04:44:25.927Z,1016.12
2023-01-31T04:44:43.924Z,1016.12
2023-01-31T04:45:14.219Z,1016.12
2023-01-31T04:45:35.215Z,1016.02
2023-01-31T04:46:01.948Z,1016.02
2023-01-31T04:46:33.976Z,1016.02
2023-01-31T04:47:07.060Z,1016.12
2023-01-31T04:47:35.233Z,1016.12
2023-01-31T04:47:53.941Z,1016.12
2023-01-31T04:48:26.806Z,1016.12
2023-01-31T04:48:57.980Z,1015.92
2023-01-31T04:49:30.019Z,1015.92
2023-01-31T04:50:02.115Z,1016.02
2023-01-31T04:50:34.043Z,1016.02
2023-01-31T04:51:06.012Z,1015.92
2023-01-31T04:51:35.202Z,1016.12
2023-01-31T04:51:53.978Z,1016.12
2023-01-31T04:52:26.794Z,1016.12
2023-01-31T04:52:57.981Z,1016.02
2023-01-31T04:53:30.799Z,1016.02
2023-01-31T04:54:01.973Z,1015.92
2023-01-31T04:54:35.793Z,1015.92
2023-01-31T04:55:06.143Z,1016.02
2023-01-31T04:55:35.204Z,1016.02
2023-01-31T04:55:54.113Z,1016.02
2023-01-31T04:56:25.974Z,1016.02
2023-01-31T04:56:43.128Z,1016.12
2023-01-31T04:57:13.981Z,1016.12
2023-01-31T04:57:35.209Z,1016.02
2023-01-31T04:58:04.978Z,1016.02
2023-01-31T04:58:34.071Z,1016.02
2023-01-31T04:59:06.768Z,1016.02
2023-01-31T04:59:35.202Z,1016.02
2023-01-31T04:59:53.965Z,1016.02
2023-01-31T05:00:26.161Z,1016.02
2023-01-31T05:00:43.175Z,1016.02
2023-01-31T05:01:14.868Z,1016.02
2023-01-31T05:01:35.398Z,1015.92
2023-01-31T05:02:02.022Z,1015.92
2023-01-31T05:02:34.009Z,1015.92
2023-01-31T05:03:06.266Z,1016.22
2023-01-31T05:03:35.205Z,1016.02
2023-01-31T05:03:53.974Z,1016.02
2023-01-31T05:04:26.778Z,1016.02
2023-01-31T05:04:58.003Z,1016.02
2023-01-31T05:05:31.567Z,1016.02
2023-01-31T05:06:01.986Z,1015.92
2023-01-31T05:06:34.210Z,1015.92
2023-01-31T05:07:05.960Z,1016.02
2023-01-31T05:07:35.227Z,1016.22
2023-01-31T05:07:54.779Z,1016.22
2023-01-31T05:08:26.060Z,1016.22
2023-01-31T05:08:43.150Z,1015.81
2023-01-31T05:09:13.976Z,1015.81
2023-01-31T05:09:35.512Z,1015.81
2023-01-31T05:10:02.932Z,1015.81
2023-01-31T05:10:33.990Z,1015.81
2023-01-31T05:11:07.409Z,1016.12
2023-01-31T05:11:35.509Z,1015.92
2023-01-31T05:11:54.010Z,1015.92
2023-01-31T05:12:26.028Z,1015.92
2023-01-31T05:12:43.167Z,1015.71
2023-01-31T05:13:14.707Z,1015.71
2023-01-31T05:13:35.206Z,1015.92
2023-01-31T05:14:02.066Z,1015.92
2023-01-31T05:14:33.983Z,1015.92
2023-01-31T05:15:06.234Z,1015.81
2023-01-31T05:15:35.234Z,1016.02
2023-01-31T05:15:54.156Z,1016.02
2023-01-31T05:16:26.876Z,1016.02
2023-01-31T05:16:58.007Z,1015.92
2023-01-31T05:17:31.407Z,1015.92
2023-01-31T05:18:02.006Z,1015.92
2023-01-31T05:18:35.042Z,1015.92
2023-01-31T05:19:06.660Z,1015.81
2023-01-31T05:19:36.683Z,1015.81
2023-01-31T05:19:54.289Z,1015.81
2023-01-31T05:20:26.259Z,1015.81
2023-01-31T05:20:58.895Z,1015.71
2023-01-31T05:21:30.035Z,1015.71
2023-01-31T05:22:02.923Z,1016.02
2023-01-31T05:22:34.008Z,1016.02
2023-01-31T05:23:06.792Z,1015.71
2023-01-31T05:23:35.231Z,1015.92
2023-01-31T05:23:53.996Z,1015.92
2023-01-31T05:24:26.024Z,1015.92
2023-01-31T05:24:43.637Z,1015.81
2023-01-31T05:25:14.939Z,1015.81
2023-01-31T05:25:35.227Z,1015.81
2023-01-31T05:26:02.043Z,1015.81
2023-01-31T05:26:33.987Z,1015.81
2023-01-31T05:27:06.003Z,1015.61
2023-01-31T05:27:35.849Z,1015.81
2023-01-31T05:27:54.045Z,1015.81
2023-01-31T05:28:26.659Z,1015.81
2023-01-31T05:28:43.240Z,1015.71
2023-01-31T05:29:13.982Z,1015.71
2023-01-31T05:29:35.448Z,1015.61
2023-01-31T05:30:02.239Z,1015.61
2023-01-31T05:30:35.967Z,1015.61
2023-01-31T05:31:06.736Z,1015.81
2023-01-31T05:31:35.257Z,1015.51
2023-01-31T05:31:54.013Z,1015.51
2023-01-31T05:32:25.994Z,1015.51
2023-01-31T05:32:43.180Z,1015.81
2023-01-31T05:33:14.045Z,1015.81
2023-01-31T05:33:35.185Z,1015.81
2023-01-31T05:34:02.846Z,1015.81
2023-01-31T05:34:34.012Z,1015.81